createdAt,value
2019-05-17T00:00:37.547Z,10.22
2019-05-17T00:01:37.576Z,10.16
2019-05-17T00:02:37.411Z,10.26
2019-05-17T00:03:36.591Z,10.23
2019-05-17T00:04:36.492Z,10.22
2019-05-17T00:05:37.392Z,10.19
2019-05-17T00:06:36.954Z,10.20
2019-05-17T00:07:36.894Z,10.20
2019-05-17T00:08:38.266Z,10.12
2019-05-17T00:09:37.397Z,10.13
2019-05-17T00:10:37.529Z,10.17
2019-05-17T00:11:36.754Z,10.19
2019-05-17T00:12:36.994Z,10.23
2019-05-17T00:13:38.469Z,10.20
2019-05-17T00:14:36.605Z,10.22
2019-05-17T00:15:36.700Z,10.25
2019-05-17T00:16:37.516Z,10.28
2019-05-17T00:17:37.622Z,10.30
2019-05-17T00:18:37.037Z,10.25
2019-05-17T00:19:36.945Z,10.37
2019-05-17T00:20:37.489Z,10.30
2019-05-17T00:21:36.953Z,10.28
2019-05-17T00:22:36.694Z,10.26
2019-05-17T00:23:37.537Z,10.19
2019-05-17T00:24:36.963Z,10.13
2019-05-17T00:25:36.870Z,10.09
2019-05-17T00:26:36.408Z,10.10
2019-05-17T00:27:36.746Z,10.19
2019-05-17T00:28:37.486Z,10.09
2019-05-17T00:29:37.129Z,10.10
2019-05-17T00:30:37.245Z,10.20
2019-05-17T00:31:36.979Z,10.17
2019-05-17T00:32:36.880Z,10.20
2019-05-17T00:33:36.702Z,10.15
2019-05-17T00:34:37.713Z,10.12
2019-05-17T00:35:37.718Z,10.13
2019-05-17T00:36:37.473Z,10.16
2019-05-17T00:37:37.341Z,10.09
2019-05-17T00:38:47.628Z,10.05
2019-05-17T00:39:36.993Z,10.16
2019-05-17T00:40:36.585Z,10.05
2019-05-17T00:41:37.505Z,10.12
2019-05-17T00:42:37.177Z,9.98
2019-05-17T00:43:36.872Z,9.95
2019-05-17T00:44:36.594Z,9.98
2019-05-17T00:45:37.771Z,9.98
2019-05-17T00:46:37.251Z,9.87
2019-05-17T00:47:37.410Z,9.91
2019-05-17T00:48:37.278Z,9.98
2019-05-17T00:49:37.162Z,9.87
2019-05-17T00:50:37.922Z,9.94
2019-05-17T00:51:36.908Z,9.99
2019-05-17T00:52:36.923Z,9.92
2019-05-17T00:53:36.253Z,9.95
2019-05-17T00:54:36.170Z,10.02
2019-05-17T00:55:36.288Z,9.97
2019-05-17T00:56:37.166Z,9.98
2019-05-17T00:57:36.939Z,10.01
2019-05-17T00:58:37.097Z,9.91
2019-05-17T00:59:36.945Z,9.98
2019-05-17T01:00:37.758Z,9.91
2019-05-17T01:01:36.488Z,10.01
2019-05-17T01:02:36.324Z,9.89
2019-05-17T01:03:36.283Z,9.94
2019-05-17T01:04:36.847Z,9.86
2019-05-17T01:05:36.868Z,9.84
2019-05-17T01:06:37.614Z,9.87
2019-05-17T01:07:37.615Z,9.87
2019-05-17T01:08:37.247Z,9.84
2019-05-17T01:09:36.675Z,9.82
2019-05-17T01:10:36.830Z,9.79
2019-05-17T01:11:36.570Z,9.83
2019-05-17T01:12:36.592Z,9.76
2019-05-17T01:13:37.480Z,9.74
2019-05-17T01:14:37.223Z,9.72
2019-05-17T01:15:36.894Z,9.64
2019-05-17T01:16:36.805Z,9.66
2019-05-17T01:17:36.574Z,9.64
2019-05-17T01:18:36.212Z,9.65
2019-05-17T01:19:36.564Z,9.62
2019-05-17T01:20:36.987Z,9.66
2019-05-17T01:21:36.750Z,9.64
2019-05-17T01:22:36.744Z,9.48
2019-05-17T01:23:36.237Z,9.48
2019-05-17T01:24:36.852Z,9.58
2019-05-17T01:25:36.712Z,9.58
2019-05-17T01:26:37.353Z,9.55
2019-05-17T01:27:37.969Z,9.50
2019-05-17T01:28:36.370Z,9.47
2019-05-17T01:29:36.305Z,9.44
2019-05-17T01:30:37.443Z,9.36
2019-05-17T01:31:37.396Z,9.31
2019-05-17T01:32:37.423Z,9.26
2019-05-17T01:33:36.737Z,9.18
2019-05-17T01:34:37.428Z,9.18
2019-05-17T01:35:37.406Z,9.21
2019-05-17T01:36:37.022Z,9.22
2019-05-17T01:37:36.928Z,9.16
2019-05-17T01:38:37.413Z,9.19
2019-05-17T01:39:37.504Z,9.19
2019-05-17T01:40:37.235Z,9.19
2019-05-17T01:41:37.190Z,9.19
2019-05-17T01:42:37.398Z,9.14
2019-05-17T01:43:36.800Z,9.34
2019-05-17T01:44:36.745Z,9.37
2019-05-17T01:45:36.536Z,9.31
2019-05-17T01:46:37.006Z,9.36
2019-05-17T01:47:36.839Z,9.34
2019-05-17T01:48:36.554Z,9.36
2019-05-17T01:49:36.319Z,9.34
2019-05-17T01:50:37.322Z,9.39
2019-05-17T01:51:37.050Z,9.37
2019-05-17T01:52:37.005Z,9.31
2019-05-17T01:53:36.472Z,9.18
2019-05-17T01:54:36.231Z,9.14
2019-05-17T01:55:37.348Z,9.31
2019-05-17T01:56:36.963Z,9.25
2019-05-17T01:57:36.961Z,9.21
2019-05-17T01:58:36.501Z,9.23
2019-05-17T01:59:37.144Z,9.23
2019-05-17T02:00:37.284Z,9.25
2019-05-17T02:01:37.159Z,9.19
2019-05-17T02:02:36.597Z,9.16
2019-05-17T02:03:37.302Z,9.21
2019-05-17T02:04:37.236Z,9.22
2019-05-17T02:05:37.337Z,9.14
2019-05-17T02:06:36.575Z,9.18
2019-05-17T02:07:37.164Z,9.21
2019-05-17T02:08:37.014Z,9.29
2019-05-17T02:09:40.675Z,9.29
2019-05-17T02:10:37.586Z,9.37
2019-05-17T02:11:37.042Z,9.31
2019-05-17T02:12:37.007Z,9.34
2019-05-17T02:13:37.108Z,9.37
2019-05-17T02:14:37.281Z,9.37
2019-05-17T02:15:37.483Z,9.36
2019-05-17T02:16:37.422Z,9.34
2019-05-17T02:17:37.176Z,9.34
2019-05-17T02:18:37.043Z,9.29
2019-05-17T02:19:37.003Z,9.31
2019-05-17T02:20:36.944Z,9.19
2019-05-17T02:21:36.767Z,9.32
2019-05-17T02:22:36.737Z,9.29
2019-05-17T02:23:36.976Z,9.19
2019-05-17T02:24:36.960Z,9.21
2019-05-17T02:25:36.968Z,9.29
2019-05-17T02:26:37.286Z,9.32
2019-05-17T02:27:40.852Z,9.32
2019-05-17T02:28:35.788Z,9.32
2019-05-17T02:29:34.779Z,9.34
2019-05-17T02:30:34.759Z,9.32
2019-05-17T02:31:34.750Z,9.37
2019-05-17T02:32:34.806Z,9.37
2019-05-17T02:33:34.738Z,9.36
2019-05-17T02:34:34.791Z,9.39
2019-05-17T02:35:34.704Z,9.40
2019-05-17T02:36:34.705Z,9.34
2019-05-17T02:37:34.740Z,9.40
2019-05-17T02:38:34.670Z,9.23
2019-05-17T02:39:51.910Z,9.21
2019-05-17T02:40:35.645Z,9.21
2019-05-17T02:41:34.635Z,9.37
2019-05-17T02:42:34.655Z,9.22
2019-05-17T02:43:34.613Z,9.21
2019-05-17T02:44:34.619Z,9.26
2019-05-17T02:45:34.596Z,9.37
2019-05-17T02:46:34.603Z,9.31
2019-05-17T02:47:34.584Z,9.34
2019-05-17T02:48:34.561Z,9.29
2019-05-17T02:49:34.558Z,9.31
2019-05-17T02:50:34.540Z,9.41
2019-05-17T02:51:34.528Z,9.39
2019-05-17T02:52:34.536Z,9.36
2019-05-17T02:53:34.507Z,9.25
2019-05-17T02:54:34.500Z,9.34
2019-05-17T02:55:34.504Z,9.21
2019-05-17T02:56:34.508Z,9.21
2019-05-17T02:57:34.863Z,9.22
2019-05-17T02:58:34.605Z,9.11
2019-05-17T02:59:34.437Z,9.13
2019-05-17T03:00:34.513Z,9.16
2019-05-17T03:01:34.416Z,9.14
2019-05-17T03:02:34.405Z,9.19
2019-05-17T03:03:34.414Z,9.22
2019-05-17T03:04:34.402Z,9.16
2019-05-17T03:05:34.369Z,9.13
2019-05-17T03:06:34.355Z,9.19
2019-05-17T03:07:34.357Z,9.14
2019-05-17T03:08:34.597Z,9.00
2019-05-17T03:09:34.333Z,8.99
2019-05-17T03:10:34.325Z,9.00
2019-05-17T03:11:34.317Z,9.03
2019-05-17T03:12:34.297Z,9.08
2019-05-17T03:13:34.305Z,8.95
2019-05-17T03:14:34.281Z,8.88
2019-05-17T03:15:34.265Z,8.91
2019-05-17T03:16:34.264Z,8.91
2019-05-17T03:17:34.256Z,8.82
2019-05-17T03:18:34.227Z,8.84
2019-05-17T03:19:34.227Z,8.87
2019-05-17T03:20:34.211Z,8.74
2019-05-17T03:21:34.215Z,8.87
2019-05-17T03:22:34.193Z,8.79
2019-05-17T03:23:34.188Z,8.69
2019-05-17T03:24:34.159Z,8.82
2019-05-17T03:25:34.154Z,8.81
2019-05-17T03:26:34.153Z,8.78
2019-05-17T03:27:34.199Z,8.87
2019-05-17T03:28:34.379Z,8.85
2019-05-17T03:29:34.108Z,8.73
2019-05-17T03:30:37.158Z,8.71
2019-05-17T03:31:41.907Z,8.74
2019-05-17T03:32:36.538Z,8.76
2019-05-17T03:33:35.769Z,8.71
2019-05-17T03:34:36.868Z,8.81
2019-05-17T03:35:37.655Z,8.81
2019-05-17T03:36:36.043Z,8.73
2019-05-17T03:37:37.712Z,8.69
2019-05-17T03:38:34.043Z,8.76
2019-05-17T03:39:34.043Z,8.69
2019-05-17T03:41:01.385Z,8.71
2019-05-17T03:41:34.973Z,8.73
2019-05-17T03:42:33.966Z,8.66
2019-05-17T03:43:35.245Z,8.66
2019-05-17T03:44:33.943Z,8.71
2019-05-17T03:45:34.376Z,8.73
2019-05-17T03:46:33.919Z,8.69
2019-05-17T03:47:33.909Z,8.71
2019-05-17T03:48:33.895Z,8.76
2019-05-17T03:49:33.898Z,8.81
2019-05-17T03:50:34.077Z,8.67
2019-05-17T03:51:33.896Z,8.70
2019-05-17T03:52:33.851Z,8.84
2019-05-17T03:53:33.847Z,8.89
2019-05-17T03:54:33.846Z,8.89
2019-05-17T03:55:33.830Z,8.89
2019-05-17T03:56:33.831Z,9.00
2019-05-17T03:57:33.858Z,9.03
2019-05-17T03:58:33.788Z,9.06
2019-05-17T03:59:33.799Z,9.16
2019-05-17T04:00:35.229Z,9.18
2019-05-17T04:01:33.755Z,9.21
2019-05-17T04:02:33.745Z,9.21
2019-05-17T04:03:35.635Z,9.28
2019-05-17T04:04:33.713Z,9.34
2019-05-17T04:05:33.800Z,9.31
2019-05-17T04:06:33.699Z,9.40
2019-05-17T04:07:33.689Z,9.29
2019-05-17T04:08:33.793Z,9.28
2019-05-17T04:09:37.517Z,9.34
2019-05-17T04:10:34.012Z,9.36
2019-05-17T04:11:36.609Z,9.36
2019-05-17T04:12:33.638Z,9.34
2019-05-17T04:13:33.929Z,9.23
2019-05-17T04:14:33.785Z,9.18
2019-05-17T04:15:33.593Z,9.25
2019-05-17T04:16:34.147Z,9.25
2019-05-17T04:17:33.591Z,9.21
2019-05-17T04:18:33.813Z,9.36
2019-05-17T04:19:33.850Z,9.22
2019-05-17T04:20:33.815Z,9.28
2019-05-17T04:21:34.366Z,9.34
2019-05-17T04:22:33.535Z,9.29
2019-05-17T04:23:34.184Z,9.39
2019-05-17T04:24:33.549Z,9.31
2019-05-17T04:25:34.017Z,9.34
2019-05-17T04:26:33.484Z,9.46
2019-05-17T04:27:33.460Z,9.47
2019-05-17T04:28:33.816Z,9.47
2019-05-17T04:29:33.596Z,9.50
2019-05-17T04:30:33.425Z,9.51
2019-05-17T04:31:34.825Z,9.64
2019-05-17T04:32:33.398Z,9.61
2019-05-17T04:33:33.940Z,9.69
2019-05-17T04:34:33.823Z,9.65
2019-05-17T04:35:33.383Z,9.73
2019-05-17T04:36:33.367Z,9.69
2019-05-17T04:37:34.025Z,9.74
2019-05-17T04:38:33.411Z,9.69
2019-05-17T04:39:33.329Z,9.80
2019-05-17T04:40:34.144Z,9.82
2019-05-17T04:41:45.040Z,9.77
2019-05-17T04:42:34.296Z,9.82
2019-05-17T04:43:33.780Z,9.83
2019-05-17T04:44:33.307Z,9.91
2019-05-17T04:45:33.809Z,9.84
2019-05-17T04:46:33.257Z,9.80
2019-05-17T04:47:33.579Z,9.95
2019-05-17T04:48:33.225Z,9.89
2019-05-17T04:49:33.447Z,9.87
2019-05-17T04:50:33.570Z,9.91
2019-05-17T04:51:33.203Z,9.86
2019-05-17T04:52:33.744Z,9.87
2019-05-17T04:53:33.358Z,9.89
2019-05-17T04:54:33.567Z,9.98
2019-05-17T04:55:34.227Z,9.89
2019-05-17T04:56:33.591Z,9.92
2019-05-17T04:57:33.148Z,9.87
2019-05-17T04:58:33.773Z,9.94
2019-05-17T04:59:33.994Z,9.86
2019-05-17T05:00:33.963Z,9.84
2019-05-17T05:01:33.257Z,9.86
2019-05-17T05:02:33.300Z,9.87
2019-05-17T05:03:33.059Z,9.86
2019-05-17T05:04:33.908Z,9.86
2019-05-17T05:05:33.425Z,9.91
2019-05-17T05:06:33.204Z,9.87
2019-05-17T05:07:33.721Z,9.91
2019-05-17T05:08:33.383Z,9.91
2019-05-17T05:09:33.002Z,9.94
2019-05-17T05:10:34.821Z,9.91
2019-05-17T05:11:33.982Z,10.05
2019-05-17T05:12:33.711Z,9.87
2019-05-17T05:13:33.491Z,10.01
2019-05-17T05:14:33.156Z,10.05
2019-05-17T05:15:32.947Z,10.07
2019-05-17T05:16:32.921Z,10.07
2019-05-17T05:17:33.092Z,10.09
2019-05-17T05:18:33.030Z,10.20
2019-05-17T05:19:33.139Z,10.07
2019-05-17T05:20:32.880Z,10.19
2019-05-17T05:21:32.877Z,10.33
2019-05-17T05:22:33.189Z,10.25
2019-05-17T05:23:32.848Z,10.38
2019-05-17T05:24:32.858Z,10.42
2019-05-17T05:25:32.829Z,10.38
2019-05-17T05:26:32.817Z,10.51
2019-05-17T05:27:32.852Z,10.51
2019-05-17T05:28:32.784Z,10.53
2019-05-17T05:29:32.780Z,10.57
2019-05-17T05:30:32.774Z,10.59
2019-05-17T05:31:32.764Z,10.69
2019-05-17T05:32:32.764Z,10.72
2019-05-17T05:33:33.352Z,10.71
2019-05-17T05:34:32.726Z,10.84
2019-05-17T05:35:32.796Z,10.82
2019-05-17T05:36:32.911Z,10.82
2019-05-17T05:37:33.130Z,10.90
2019-05-17T05:38:32.690Z,11.02
2019-05-17T05:39:32.668Z,11.00
2019-05-17T05:40:32.670Z,11.00
2019-05-17T05:41:32.646Z,11.02
2019-05-17T05:42:32.633Z,11.10
2019-05-17T05:43:32.906Z,11.15
2019-05-17T05:44:32.634Z,11.15
2019-05-17T05:45:32.600Z,11.19
2019-05-17T05:46:32.591Z,11.12
2019-05-17T05:47:32.580Z,11.18
2019-05-17T05:48:32.864Z,11.18
2019-05-17T05:49:32.575Z,11.22
2019-05-17T05:50:32.558Z,11.25
2019-05-17T05:51:32.562Z,11.25
2019-05-17T05:52:32.527Z,11.25
2019-05-17T05:53:32.702Z,11.19
2019-05-17T05:54:32.539Z,11.29
2019-05-17T05:55:32.508Z,11.36
2019-05-17T05:56:32.730Z,11.33
2019-05-17T05:57:32.479Z,11.32
2019-05-17T05:58:32.459Z,11.44
2019-05-17T05:59:35.230Z,11.43
2019-05-17T06:00:33.049Z,11.37
2019-05-17T06:01:32.755Z,11.36
2019-05-17T06:02:32.425Z,11.36
2019-05-17T06:03:32.402Z,11.36
2019-05-17T06:04:32.399Z,11.43
2019-05-17T06:05:32.573Z,11.47
2019-05-17T06:06:32.392Z,11.47
2019-05-17T06:07:32.385Z,11.59
2019-05-17T06:08:32.483Z,11.54
2019-05-17T06:09:32.342Z,11.70
2019-05-17T06:10:32.568Z,11.65
2019-05-17T06:11:32.400Z,11.69
2019-05-17T06:12:32.355Z,11.75
2019-05-17T06:13:32.701Z,11.78
2019-05-17T06:14:32.490Z,11.84
2019-05-17T06:15:32.270Z,11.84
2019-05-17T06:16:32.319Z,11.83
2019-05-17T06:17:32.325Z,11.84
2019-05-17T06:18:32.246Z,11.81
2019-05-17T06:19:32.236Z,11.88
2019-05-17T06:20:32.464Z,11.80
2019-05-17T06:21:32.218Z,11.84
2019-05-17T06:22:32.194Z,11.90
2019-05-17T06:23:32.200Z,11.87
2019-05-17T06:24:32.187Z,11.84
2019-05-17T06:25:34.147Z,11.90
2019-05-17T06:26:32.150Z,11.97
2019-05-17T06:27:32.178Z,11.99
2019-05-17T06:28:32.136Z,12.02
2019-05-17T06:29:32.799Z,11.91
2019-05-17T06:30:32.472Z,12.04
2019-05-17T06:31:33.282Z,12.00
2019-05-17T06:32:32.077Z,12.07
2019-05-17T06:33:34.715Z,12.07
2019-05-17T06:34:32.756Z,12.10
2019-05-17T06:35:32.539Z,12.09
2019-05-17T06:36:32.877Z,12.13
2019-05-17T06:37:32.025Z,12.09
2019-05-17T06:38:32.833Z,12.07
2019-05-17T06:39:32.854Z,12.18
2019-05-17T06:40:32.396Z,12.09
2019-05-17T06:41:32.439Z,12.20
2019-05-17T06:42:40.415Z,12.25
2019-05-17T06:43:32.959Z,12.43
2019-05-17T06:44:32.625Z,12.67
2019-05-17T06:45:32.587Z,13.00
2019-05-17T06:46:32.455Z,13.46
2019-05-17T06:47:32.864Z,13.60
2019-05-17T06:48:32.117Z,13.54
2019-05-17T06:49:31.959Z,13.52
2019-05-17T06:50:32.756Z,13.54
2019-05-17T06:51:31.869Z,13.49
2019-05-17T06:52:32.644Z,13.38
2019-05-17T06:53:32.364Z,13.33
2019-05-17T06:54:33.162Z,13.35
2019-05-17T06:55:31.827Z,13.33
2019-05-17T06:56:32.264Z,13.35
2019-05-17T06:57:32.558Z,13.22
2019-05-17T06:58:31.794Z,13.16
2019-05-17T06:59:31.786Z,13.19
2019-05-17T07:00:31.771Z,13.19
2019-05-17T07:01:31.761Z,13.20
2019-05-17T07:02:31.751Z,13.20
2019-05-17T07:03:31.729Z,13.13
2019-05-17T07:04:31.732Z,13.16
2019-05-17T07:05:31.735Z,13.18
2019-05-17T07:06:31.704Z,13.22
2019-05-17T07:07:31.705Z,13.28
2019-05-17T07:08:31.691Z,13.35
2019-05-17T07:09:31.671Z,13.42
2019-05-17T07:10:31.660Z,13.33
2019-05-17T07:11:31.653Z,13.33
2019-05-17T07:12:31.634Z,13.44
2019-05-17T07:13:31.633Z,13.56
2019-05-17T07:14:31.614Z,13.56
2019-05-17T07:15:43.696Z,13.54
2019-05-17T07:16:32.595Z,13.62
2019-05-17T07:17:31.587Z,13.57
2019-05-17T07:18:31.570Z,13.71
2019-05-17T07:19:31.555Z,13.71
2019-05-17T07:20:31.543Z,13.77
2019-05-17T07:21:31.534Z,13.75
2019-05-17T07:22:31.581Z,13.89
2019-05-17T07:23:31.522Z,13.90
2019-05-17T07:24:31.527Z,13.95
2019-05-17T07:25:31.493Z,13.97
2019-05-17T07:26:31.475Z,13.99
2019-05-17T07:27:41.384Z,13.97
2019-05-17T07:28:32.458Z,13.89
2019-05-17T07:29:31.443Z,13.83
2019-05-17T07:30:31.442Z,13.90
2019-05-17T07:31:31.448Z,13.95
2019-05-17T07:32:31.438Z,13.99
2019-05-17T07:33:31.438Z,13.97
2019-05-17T07:34:31.390Z,13.85
2019-05-17T07:35:31.381Z,13.93
2019-05-17T07:36:31.392Z,13.90
2019-05-17T07:37:31.360Z,13.90
2019-05-17T07:38:31.345Z,14.00
2019-05-17T07:39:31.336Z,13.93
2019-05-17T07:40:31.332Z,13.99
2019-05-17T07:41:31.320Z,13.97
2019-05-17T07:42:32.015Z,14.10
2019-05-17T07:43:31.298Z,14.08
2019-05-17T07:44:31.285Z,14.07
2019-05-17T07:45:31.280Z,14.12
2019-05-17T07:46:31.263Z,14.22
2019-05-17T07:47:31.276Z,14.23
2019-05-17T07:48:31.558Z,14.17
2019-05-17T07:49:31.221Z,14.30
2019-05-17T07:50:31.204Z,14.26
2019-05-17T07:51:31.198Z,14.35
2019-05-17T07:52:31.191Z,14.30
2019-05-17T07:53:31.205Z,14.25
2019-05-17T07:54:31.189Z,14.30
2019-05-17T07:55:31.148Z,14.41
2019-05-17T07:56:31.150Z,14.36
2019-05-17T07:57:31.159Z,14.44
2019-05-17T07:58:31.132Z,14.43
2019-05-17T07:59:31.109Z,14.41
2019-05-17T08:00:31.100Z,14.40
2019-05-17T08:01:31.098Z,14.44
2019-05-17T08:02:31.079Z,14.48
2019-05-17T08:03:31.075Z,14.45
2019-05-17T08:04:31.053Z,14.55
2019-05-17T08:05:31.057Z,14.62
2019-05-17T08:06:31.037Z,14.78
2019-05-17T08:07:31.021Z,15.19
2019-05-17T08:08:31.484Z,15.40
2019-05-17T08:09:31.010Z,15.44
2019-05-17T08:10:31.003Z,15.52
2019-05-17T08:11:30.976Z,15.46
2019-05-17T08:12:30.967Z,15.37
2019-05-17T08:13:33.655Z,15.29
2019-05-17T08:14:33.543Z,15.14
2019-05-17T08:15:30.936Z,15.25
2019-05-17T08:16:30.927Z,15.15
2019-05-17T08:17:30.917Z,15.18
2019-05-17T08:18:30.904Z,15.14
2019-05-17T08:19:30.889Z,15.22
2019-05-17T08:20:30.884Z,15.22
2019-05-17T08:21:30.866Z,15.22
2019-05-17T08:22:30.869Z,15.31
2019-05-17T08:23:30.850Z,15.28
2019-05-17T08:24:30.840Z,15.28
2019-05-17T08:25:30.821Z,15.29
2019-05-17T08:26:30.819Z,15.35
2019-05-17T08:27:30.808Z,15.33
2019-05-17T08:28:31.415Z,15.31
2019-05-17T08:29:30.779Z,15.29
2019-05-17T08:30:30.768Z,15.27
2019-05-17T08:31:30.808Z,15.25
2019-05-17T08:32:31.601Z,15.39
2019-05-17T08:33:30.754Z,15.40
2019-05-17T08:34:30.726Z,15.47
2019-05-17T08:35:30.718Z,15.52
2019-05-17T08:36:30.703Z,15.47
2019-05-17T08:37:30.736Z,15.43
2019-05-17T08:38:30.765Z,15.57
2019-05-17T08:39:30.693Z,15.54
2019-05-17T08:40:30.736Z,15.51
2019-05-17T08:41:31.103Z,15.54
2019-05-17T08:42:30.638Z,15.57
2019-05-17T08:43:39.475Z,15.59
2019-05-17T08:44:31.613Z,15.65
2019-05-17T08:45:30.608Z,15.64
2019-05-17T08:46:30.680Z,15.58
2019-05-17T08:47:30.584Z,15.55
2019-05-17T08:48:30.576Z,15.59
2019-05-17T08:49:30.565Z,15.65
2019-05-17T08:50:30.558Z,15.67
2019-05-17T08:51:30.690Z,15.79
2019-05-17T08:52:30.524Z,15.80
2019-05-17T08:53:30.674Z,15.90
2019-05-17T08:54:30.553Z,15.86
2019-05-17T08:55:30.500Z,15.91
2019-05-17T08:56:31.050Z,15.97
2019-05-17T08:57:30.574Z,16.01
2019-05-17T08:58:30.464Z,16.05
2019-05-17T08:59:30.455Z,16.09
2019-05-17T09:00:31.364Z,16.16
2019-05-17T09:01:30.436Z,16.16
2019-05-17T09:02:30.421Z,16.17
2019-05-17T09:03:30.591Z,16.12
2019-05-17T09:04:30.390Z,16.24
2019-05-17T09:05:30.420Z,16.28
2019-05-17T09:06:30.374Z,16.24
2019-05-17T09:07:30.380Z,16.38
2019-05-17T09:08:30.388Z,16.31
2019-05-17T09:09:31.474Z,16.35
2019-05-17T09:10:30.321Z,16.38
2019-05-17T09:11:30.399Z,16.36
2019-05-17T09:12:30.310Z,16.51
2019-05-17T09:13:30.304Z,16.61
2019-05-17T09:14:30.286Z,16.58
2019-05-17T09:15:30.282Z,16.60
2019-05-17T09:16:30.698Z,16.60
2019-05-17T09:17:30.253Z,16.78
2019-05-17T09:18:30.412Z,16.72
2019-05-17T09:19:30.245Z,16.66
2019-05-17T09:20:30.220Z,16.60
2019-05-17T09:21:31.426Z,16.69
2019-05-17T09:22:30.645Z,16.71
2019-05-17T09:23:30.505Z,16.76
2019-05-17T09:24:30.174Z,16.75
2019-05-17T09:25:30.372Z,16.78
2019-05-17T09:26:30.149Z,16.83
2019-05-17T09:27:30.219Z,16.87
2019-05-17T09:28:30.261Z,16.91
2019-05-17T09:29:30.175Z,16.83
2019-05-17T09:30:31.431Z,17.14
2019-05-17T09:31:30.101Z,16.89
2019-05-17T09:32:30.080Z,16.90
2019-05-17T09:33:30.344Z,16.78
2019-05-17T09:34:30.122Z,16.58
2019-05-17T09:35:30.203Z,16.57
2019-05-17T09:36:30.444Z,16.57
2019-05-17T09:37:30.497Z,16.61
2019-05-17T09:38:30.020Z,16.46
2019-05-17T09:39:30.006Z,16.61
2019-05-17T09:40:30.007Z,16.69
2019-05-17T09:41:29.990Z,16.94
2019-05-17T09:42:30.188Z,17.16
2019-05-17T09:43:29.958Z,17.30
2019-05-17T09:44:30.011Z,17.33
2019-05-17T09:45:30.676Z,17.48
2019-05-17T09:46:30.395Z,17.36
2019-05-17T09:47:30.225Z,17.45
2019-05-17T09:48:30.724Z,17.45
2019-05-17T09:49:30.018Z,17.44
2019-05-17T09:50:29.888Z,17.38
2019-05-17T09:51:30.354Z,17.45
2019-05-17T09:52:29.869Z,17.48
2019-05-17T09:53:30.769Z,17.52
2019-05-17T09:54:41.372Z,17.54
2019-05-17T09:55:30.830Z,17.52
2019-05-17T09:56:30.240Z,17.51
2019-05-17T09:57:29.938Z,17.52
2019-05-17T09:58:29.988Z,17.68
2019-05-17T09:59:29.914Z,17.76
2019-05-17T10:00:29.828Z,17.85
2019-05-17T10:01:30.301Z,17.78
2019-05-17T10:02:29.751Z,17.79
2019-05-17T10:03:30.742Z,17.80
2019-05-17T10:04:30.435Z,17.86
2019-05-17T10:05:31.262Z,17.85
2019-05-17T10:06:29.711Z,17.90
2019-05-17T10:07:29.985Z,17.98
2019-05-17T10:08:29.679Z,17.85
2019-05-17T10:09:29.689Z,17.95
2019-05-17T10:10:29.677Z,18.03
2019-05-17T10:11:30.783Z,18.05
2019-05-17T10:12:29.647Z,18.13
2019-05-17T10:13:29.634Z,18.15
2019-05-17T10:14:31.364Z,18.18
2019-05-17T10:15:30.092Z,18.11
2019-05-17T10:16:30.746Z,18.26
2019-05-17T10:17:29.675Z,18.31
2019-05-17T10:18:29.696Z,18.29
2019-05-17T10:19:29.617Z,18.26
2019-05-17T10:20:29.565Z,18.15
2019-05-17T10:21:30.369Z,18.22
2019-05-17T10:22:30.422Z,18.19
2019-05-17T10:23:30.054Z,18.26
2019-05-17T10:24:38.503Z,18.22
2019-05-17T10:25:30.536Z,18.34
2019-05-17T10:26:30.328Z,18.29
2019-05-17T10:27:30.248Z,18.26
2019-05-17T10:28:29.479Z,18.34
2019-05-17T10:29:29.982Z,18.47
2019-05-17T10:30:29.969Z,18.62
2019-05-17T10:31:30.413Z,18.71
2019-05-17T10:32:30.962Z,18.60
2019-05-17T10:33:29.550Z,18.58
2019-05-17T10:34:29.501Z,18.49
2019-05-17T10:35:29.625Z,18.35
2019-05-17T10:36:29.480Z,18.31
2019-05-17T10:37:30.300Z,18.23
2019-05-17T10:38:29.989Z,18.07
2019-05-17T10:39:29.794Z,18.07
2019-05-17T10:40:29.860Z,18.00
2019-05-17T10:41:30.114Z,17.95
2019-05-17T10:42:30.604Z,17.94
2019-05-17T10:43:29.854Z,18.07
2019-05-17T10:44:43.624Z,18.15
2019-05-17T10:45:30.576Z,17.94
2019-05-17T10:46:30.060Z,17.95
2019-05-17T10:47:30.096Z,17.97
2019-05-17T10:48:30.071Z,17.86
2019-05-17T10:49:29.545Z,17.87
2019-05-17T10:50:29.791Z,17.78
2019-05-17T10:51:29.623Z,17.83
2019-05-17T10:52:29.973Z,17.92
2019-05-17T10:53:29.793Z,17.76
2019-05-17T10:54:30.084Z,17.79
2019-05-17T10:55:30.280Z,17.67
2019-05-17T10:56:29.288Z,17.63
2019-05-17T10:57:30.248Z,17.68
2019-05-17T10:58:29.673Z,17.52
2019-05-17T10:59:29.239Z,17.42
2019-05-17T11:00:30.306Z,17.51
2019-05-17T11:01:30.554Z,17.39
2019-05-17T11:02:30.356Z,17.38
2019-05-17T11:03:29.633Z,17.46
2019-05-17T11:04:29.075Z,17.44
2019-05-17T11:05:30.808Z,17.33
2019-05-17T11:06:30.224Z,17.39
2019-05-17T11:07:29.081Z,17.44
2019-05-17T11:08:29.053Z,17.33
2019-05-17T11:09:31.080Z,17.46
2019-05-17T11:10:29.003Z,17.42
2019-05-17T11:11:28.993Z,17.39
2019-05-17T11:12:29.004Z,17.41
2019-05-17T11:13:28.997Z,17.38
2019-05-17T11:14:28.972Z,17.29
2019-05-17T11:15:28.955Z,17.27
2019-05-17T11:16:28.946Z,17.27
2019-05-17T11:17:28.932Z,17.27
2019-05-17T11:18:28.933Z,17.29
2019-05-17T11:19:28.905Z,17.12
2019-05-17T11:20:28.901Z,17.16
2019-05-17T11:21:28.889Z,17.29
2019-05-17T11:22:28.877Z,17.30
2019-05-17T11:23:28.870Z,17.31
2019-05-17T11:24:28.859Z,17.34
2019-05-17T11:25:28.908Z,17.38
2019-05-17T11:26:28.833Z,17.34
2019-05-17T11:27:28.820Z,17.36
2019-05-17T11:28:28.816Z,17.41
2019-05-17T11:29:28.874Z,17.44
2019-05-17T11:30:28.785Z,17.56
2019-05-17T11:31:28.777Z,17.63
2019-05-17T11:32:28.770Z,17.86
2019-05-17T11:33:28.768Z,17.80
2019-05-17T11:34:28.738Z,17.86
2019-05-17T11:35:28.733Z,17.78
2019-05-17T11:36:28.736Z,17.80
2019-05-17T11:37:28.709Z,17.74
2019-05-17T11:38:28.706Z,17.67
2019-05-17T11:39:28.690Z,17.72
2019-05-17T11:40:28.698Z,17.72
2019-05-17T11:41:28.669Z,17.65
2019-05-17T11:42:28.692Z,17.63
2019-05-17T11:43:28.642Z,17.60
2019-05-17T11:44:28.635Z,17.68
2019-05-17T11:45:32.429Z,17.63
2019-05-17T11:46:36.177Z,17.64
2019-05-17T11:47:29.593Z,17.64
2019-05-17T11:48:28.598Z,17.65
2019-05-17T11:49:28.578Z,17.72
2019-05-17T11:50:28.562Z,17.87
2019-05-17T11:51:28.600Z,18.19
2019-05-17T11:52:28.563Z,18.23
2019-05-17T11:53:28.607Z,18.37
2019-05-17T11:54:28.531Z,18.71
2019-05-17T11:55:28.509Z,19.18
2019-05-17T11:56:28.557Z,19.70
2019-05-17T11:57:28.496Z,20.19
2019-05-17T11:58:28.486Z,20.32
2019-05-17T11:59:28.472Z,19.96
2019-05-17T12:00:28.458Z,20.06
2019-05-17T12:01:28.455Z,19.94
2019-05-17T12:02:28.439Z,19.70
2019-05-17T12:03:28.429Z,19.48
2019-05-17T12:04:28.415Z,19.41
2019-05-17T12:05:28.451Z,19.31
2019-05-17T12:06:28.392Z,19.19
2019-05-17T12:07:28.394Z,19.07
2019-05-17T12:08:28.372Z,18.86
2019-05-17T12:09:36.851Z,18.78
2019-05-17T12:10:29.370Z,18.78
2019-05-17T12:11:28.343Z,18.68
2019-05-17T12:12:28.329Z,18.62
2019-05-17T12:13:28.325Z,18.55
2019-05-17T12:14:28.308Z,18.44
2019-05-17T12:15:43.743Z,18.45
2019-05-17T12:16:29.291Z,18.44
2019-05-17T12:17:28.280Z,18.44
2019-05-17T12:18:28.255Z,18.41
2019-05-17T12:19:28.254Z,18.34
2019-05-17T12:20:28.238Z,18.37
2019-05-17T12:21:28.241Z,18.31
2019-05-17T12:22:28.218Z,18.47
2019-05-17T12:23:28.206Z,18.44
2019-05-17T12:24:28.198Z,18.45
2019-05-17T12:25:28.183Z,18.40
2019-05-17T12:26:28.178Z,18.47
2019-05-17T12:27:28.166Z,18.47
2019-05-17T12:28:28.152Z,18.43
2019-05-17T12:29:28.132Z,18.45
2019-05-17T12:30:28.139Z,18.50
2019-05-17T12:31:28.147Z,18.44
2019-05-17T12:32:28.109Z,18.49
2019-05-17T12:33:28.085Z,18.58
2019-05-17T12:34:28.108Z,18.58
2019-05-17T12:35:28.069Z,18.70
2019-05-17T12:36:28.080Z,18.70
2019-05-17T12:37:28.054Z,18.75
2019-05-17T12:38:28.044Z,18.88
2019-05-17T12:39:28.030Z,18.84
2019-05-17T12:40:28.014Z,18.84
2019-05-17T12:41:28.012Z,18.73
2019-05-17T12:42:27.999Z,18.80
2019-05-17T12:43:27.990Z,18.81
2019-05-17T12:44:28.223Z,18.78
2019-05-17T12:45:30.511Z,18.70
2019-05-17T12:46:28.814Z,18.73
2019-05-17T12:47:28.502Z,18.73
2019-05-17T12:48:27.935Z,18.73
2019-05-17T12:49:27.920Z,18.75
2019-05-17T12:50:28.561Z,18.73
2019-05-17T12:51:28.648Z,18.68
2019-05-17T12:52:28.514Z,18.60
2019-05-17T12:53:27.885Z,18.60
2019-05-17T12:54:27.864Z,18.55
2019-05-17T12:55:27.854Z,18.43
2019-05-17T12:56:27.849Z,18.41
2019-05-17T12:57:27.850Z,18.45
2019-05-17T12:58:27.827Z,18.31
2019-05-17T12:59:27.806Z,18.29
2019-05-17T13:00:27.813Z,18.25
2019-05-17T13:01:27.790Z,18.23